Time;durP1;ratioP1;P1;durP2;ratioP2;P2;SDS_P1;SDS_P2;PMS_P1;PMS_P2;Temp;Humidity;BMP_temperature;BMP_pressure;BME280_temperature;BME280_humidity;BME280_pressure;Samples;Min_cycle;Max_cycle;Signal;HPM_P1;HPM_P2
2022/11/12 00:02:58;;;;;;;269.73;17.70;;;;;6.90;97917.00;;;;8216270;28;20223;-74
2022/11/12 00:07:01;;;;;;;378.77;21.47;;;;;6.90;97910.00;;;;8218101;28;20230;-73
2022/11/12 00:11:04;;;;;;;255.67;17.00;;;;;6.80;97899.00;;;;8213090;28;20231;-74
2022/11/12 00:15:08;;;;;;;284.90;17.20;;;;;6.70;97895.00;;;;8215004;28;20281;-72
2022/11/12 00:19:13;;;;;;;327.53;18.70;;;;;6.70;97895.00;;;;8222689;28;20305;-73
2022/11/12 00:23:16;;;;;;;263.03;17.17;;;;;6.70;97889.00;;;;8213331;28;20255;-72
2022/11/12 00:27:19;;;;;;;347.73;19.00;;;;;6.70;97889.00;;;;8222810;28;20861;-73
2022/11/12 00:31:22;;;;;;;193.87;15.07;;;;;6.70;97891.00;;;;8212735;28;20663;-74
2022/11/12 00:35:27;;;;;;;261.17;15.37;;;;;6.70;97898.00;;;;8227915;28;20256;-72
2022/11/12 00:39:30;;;;;;;275.87;18.00;;;;;6.80;97893.00;;;;8217022;28;20235;-72
2022/11/12 00:43:33;;;;;;;253.17;16.97;;;;;6.80;97901.00;;;;8230910;28;20292;-72
2022/11/12 00:47:36;;;;;;;199.73;14.97;;;;;6.90;97895.00;;;;8214994;28;20681;-72
2022/11/12 00:51:41;;;;;;;294.93;17.60;;;;;6.90;97893.00;;;;8235759;28;20219;-73
2022/11/12 00:55:44;;;;;;;388.50;20.23;;;;;6.80;97893.00;;;;8215663;28;20235;-73
2022/11/12 00:59:47;;;;;;;249.97;15.90;;;;;6.70;97898.00;;;;8229618;28;20257;-72
2022/11/12 01:03:50;;;;;;;271.50;16.47;;;;;6.70;97896.00;;;;8218073;28;20235;-73
2022/11/12 01:07:55;;;;;;;140.23;12.40;;;;;6.60;97893.00;;;;8225387;28;20757;-72
2022/11/12 01:11:58;;;;;;;195.00;13.77;;;;;6.70;97883.00;;;;8214518;28;20256;-74
2022/11/12 01:16:05;;;;;;;149.77;12.37;;;;;6.60;97865.00;;;;8223131;28;20236;-71
2022/11/12 01:20:09;;;;;;;240.63;14.90;;;;;6.60;97876.00;;;;8216972;28;20700;-73
2022/11/12 01:24:13;;;;;;;309.50;16.40;;;;;6.60;97875.00;;;;8222809;28;20278;-74
2022/11/12 01:28:16;;;;;;;233.63;15.10;;;;;6.70;97868.00;;;;8215328;28;20239;-71
2022/11/12 01:32:19;;;;;;;367.20;18.77;;;;;6.70;97867.00;;;;8228569;28;20226;-74
2022/11/12 01:36:23;;;;;;;156.07;11.30;;;;;6.50;97851.00;;;;8217921;28;20902;-73
2022/11/12 01:40:28;;;;;;;176.80;12.47;;;;;6.40;97851.00;;;;8213477;28;20215;-73
2022/11/12 01:44:32;;;;;;;222.27;14.27;;;;;6.40;97846.00;;;;8219096;28;20306;-71
2022/11/12 01:48:38;;;;;;;235.90;12.93;;;;;6.40;97844.00;;;;8213561;28;20242;-73
2022/11/12 01:52:45;;;;;;;326.53;18.47;;;;;6.20;97843.00;;;;8215337;28;20229;-73
2022/11/12 01:56:50;;;;;;;222.80;14.97;;;;;6.10;97838.00;;;;8219867;28;20227;-72
2022/11/12 02:00:53;;;;;;;280.70;16.87;;;;;6.00;97840.00;;;;8224045;28;20234;-72
2022/11/12 02:04:57;;;;;;;340.37;18.03;;;;;6.00;97841.00;;;;8218666;28;20306;-72
2022/11/12 02:09:01;;;;;;;148.23;12.73;;;;;5.90;97845.00;;;;8217419;28;20231;-70
2022/11/12 02:17:26;;;;;;;94.07;8.47;;;;;5.70;97837.00;;;;8216190;28;20223;-72
2022/11/12 02:21:32;;;;;;;231.93;13.50;;;;;5.60;97841.00;;;;8217878;28;20255;-73
2022/11/12 02:25:36;;;;;;;106.53;9.63;;;;;5.60;97830.00;;;;8218280;28;20223;-72
2022/11/12 02:29:45;;;;;;;193.00;12.17;;;;;5.60;97834.00;;;;8220406;28;20235;-71
2022/11/12 02:33:48;;;;;;;124.67;9.57;;;;;5.60;97833.00;;;;8218683;28;20289;-73
2022/11/12 02:37:53;;;;;;;222.53;12.20;;;;;5.60;97836.00;;;;8218024;28;20265;-71
2022/11/12 02:41:56;;;;;;;129.70;9.60;;;;;5.70;97829.00;;;;8217623;28;20273;-74
2022/11/12 02:45:59;;;;;;;263.43;14.47;;;;;5.70;97831.00;;;;8216116;28;20223;-71
2022/11/12 02:50:02;;;;;;;276.70;14.30;;;;;5.70;97831.00;;;;8221852;28;20235;-73
2022/11/12 02:54:07;;;;;;;188.43;11.73;;;;;5.70;97832.00;;;;8217756;28;20223;-71
2022/11/12 02:58:10;;;;;;;139.67;10.40;;;;;5.70;97847.00;;;;8222328;28;20215;-72
2022/11/12 03:02:13;;;;;;;219.33;14.13;;;;;5.70;97837.00;;;;8218951;28;20231;-73
2022/11/12 03:06:16;;;;;;;277.17;16.07;;;;;5.70;97849.00;;;;8229958;28;20316;-73
2022/11/12 03:10:21;;;;;;;151.17;11.10;;;;;5.70;97838.00;;;;8218741;28;20274;-74
2022/11/12 03:14:24;;;;;;;308.63;15.87;;;;;5.70;97852.00;;;;8222872;28;20223;-72
2022/11/12 03:18:27;;;;;;;305.57;15.67;;;;;5.80;97843.00;;;;8217674;28;20235;-72
2022/11/12 03:22:31;;;;;;;344.40;16.77;;;;;5.80;97838.00;;;;8219149;28;21001;-73
2022/11/12 03:26:35;;;;;;;376.27;17.03;;;;;5.80;97841.00;;;;8210568;28;20657;-71
2022/11/12 03:30:41;;;;;;;262.30;13.97;;;;;5.90;97846.00;;;;8219026;28;20314;-74
2022/11/12 03:34:44;;;;;;;228.03;13.13;;;;;5.90;97845.00;;;;8236385;28;20233;-74
2022/11/12 03:38:47;;;;;;;318.07;15.30;;;;;5.90;97847.00;;;;8213369;28;20231;-71
2022/11/12 03:42:52;;;;;;;201.47;11.97;;;;;5.90;97850.00;;;;8212464;28;20231;-75
2022/11/12 03:46:55;;;;;;;253.40;13.77;;;;;5.90;97847.00;;;;8218737;28;20230;-74
2022/11/12 03:51:00;;;;;;;358.10;17.03;;;;;5.90;97837.00;;;;8226613;28;20230;-73
2022/11/12 03:55:03;;;;;;;251.77;12.90;;;;;5.80;97853.00;;;;8225423;28;20223;-73
2022/11/12 03:59:08;;;;;;;258.33;13.63;;;;;5.80;97850.00;;;;8207243;28;20227;-74
2022/11/12 04:03:11;;;;;;;233.33;11.87;;;;;5.80;97860.00;;;;8223293;28;20700;-72
2022/11/12 04:11:35;;;;;;;229.10;11.90;;;;;5.70;97838.00;;;;8212990;28;20834;-74
2022/11/12 04:15:39;;;;;;;151.63;10.27;;;;;5.60;97839.00;;;;8211640;28;20250;-73
2022/11/12 04:24:03;;;;;;;47.13;6.27;;;;;5.40;97845.00;;;;8230794;28;20612;-75
2022/11/12 04:28:06;;;;;;;46.97;5.83;;;;;5.30;97842.00;;;;8214294;28;20269;-72
2022/11/12 04:32:11;;;;;;;52.03;5.90;;;;;5.20;97834.00;;;;8221034;28;20235;-73
2022/11/12 04:36:14;;;;;;;59.33;6.93;;;;;5.20;97829.00;;;;8224121;28;20215;-72
2022/11/12 04:49:02;;;;;;;22.00;4.07;;;;;5.10;97837.00;;;;8238898;28;20223;-72
2022/11/12 04:53:05;;;;;;;28.23;4.40;;;;;5.00;97836.00;;;;8232603;28;20870;-71
2022/11/12 04:57:08;;;;;;;15.87;3.93;;;;;5.00;97837.00;;;;8219449;28;20222;-74
2022/11/12 05:01:11;;;;;;;22.77;3.93;;;;;5.10;97838.00;;;;8218939;28;20223;-74
2022/11/12 05:05:16;;;;;;;26.20;4.57;;;;;5.00;97832.00;;;;8217716;28;20234;-76
2022/11/12 05:09:21;;;;;;;16.83;3.60;;;;;5.00;97830.00;;;;8220169;28;20586;-72
2022/11/12 05:13:24;;;;;;;12.53;3.53;;;;;4.90;97826.00;;;;8227705;28;20226;-73
2022/11/12 05:17:27;;;;;;;16.33;4.10;;;;;5.00;97830.00;;;;8217040;28;20669;-72
2022/11/12 05:25:52;;;;;;;33.23;4.40;;;;;4.90;97839.00;;;;8202297;28;20252;-72
2022/11/12 05:29:55;;;;;;;81.47;6.67;;;;;5.00;97842.00;;;;8212955;28;20294;-75
2022/11/12 05:33:58;;;;;;;98.93;7.23;;;;;5.00;97838.00;;;;8220353;28;20231;-73
2022/11/12 05:38:03;;;;;;;85.47;7.20;;;;;5.00;97836.00;;;;8227844;28;20222;-73
2022/11/12 05:42:06;;;;;;;129.30;8.00;;;;;4.90;97835.00;;;;8245293;28;20226;-72
2022/11/12 05:46:16;;;;;;;93.57;7.20;;;;;4.80;97827.00;;;;8225225;28;20748;-73
2022/11/12 05:50:19;;;;;;;155.90;8.63;;;;;4.80;97823.00;;;;8228153;28;20239;-75
2022/11/12 05:54:24;;;;;;;134.20;11.53;;;;;4.70;97831.00;;;;8227188;28;20238;-72
2022/11/12 05:58:27;;;;;;;104.53;7.33;;;;;4.60;97836.00;;;;8232326;28;20238;-75
2022/11/12 06:02:31;;;;;;;67.60;5.63;;;;;4.50;97838.00;;;;8218163;28;20235;-75
2022/11/12 06:06:34;;;;;;;38.43;4.80;;;;;4.50;97837.00;;;;8231007;28;20235;-74
2022/11/12 06:10:39;;;;;;;11.07;2.97;;;;;4.30;97840.00;;;;8210714;28;20230;-73
2022/11/12 06:14:43;;;;;;;5.23;2.43;;;;;4.30;97843.00;;;;8197064;28;20242;-78
2022/11/12 06:18:46;;;;;;;26.43;3.20;;;;;4.30;97844.00;;;;8204243;28;20223;-73
2022/11/12 06:22:49;;;;;;;19.60;3.03;;;;;4.20;97844.00;;;;8216178;28;20227;-71
2022/11/12 06:26:54;;;;;;;21.57;3.50;;;;;4.20;97851.00;;;;8203620;28;21549;-77
2022/11/12 06:30:57;;;;;;;80.20;4.80;;;;;4.10;97852.00;;;;8207201;28;20359;-76
2022/11/12 06:35:00;;;;;;;18.37;2.90;;;;;4.10;97848.00;;;;8223908;28;20691;-78
2022/11/12 06:39:04;;;;;;;67.00;4.50;;;;;4.10;97854.00;;;;8216891;28;20753;-77
2022/11/12 06:43:09;;;;;;;78.23;9.13;;;;;4.00;97854.00;;;;8221343;28;20559;-77
2022/11/12 06:47:12;;;;;;;56.70;4.77;;;;;4.10;97861.00;;;;8221318;28;20263;-75
2022/11/12 06:51:19;;;;;;;56.30;4.30;;;;;4.10;97859.00;;;;8219413;28;20239;-78
2022/11/12 06:55:22;;;;;;;38.87;3.93;;;;;4.10;97859.00;;;;8219044;28;20271;-75
2022/11/12 06:59:26;;;;;;;47.70;5.50;;;;;4.10;97853.00;;;;8216746;28;20219;-77
2022/11/12 07:03:29;;;;;;;74.40;7.97;;;;;4.10;97856.00;;;;8214289;28;20239;-75
2022/11/12 07:07:33;;;;;;;58.93;7.87;;;;;4.20;97856.00;;;;8211869;28;21015;-82
2022/11/12 07:11:36;;;;;;;37.27;4.70;;;;;4.20;97844.00;;;;8210750;28;20243;-76
2022/11/12 07:15:40;;;;;;;13.17;3.90;;;;;4.20;97851.00;;;;8214401;28;20231;-75
2022/11/12 07:19:43;;;;;;;7.57;3.87;;;;;4.20;97857.00;;;;8212263;28;20796;-76
2022/11/12 07:23:47;;;;;;;5.20;3.73;;;;;4.30;97862.00;;;;8217034;28;20282;-78
2022/11/12 07:27:50;;;;;;;9.20;5.10;;;;;4.40;97864.00;;;;8209011;28;20905;-78
2022/11/12 07:31:55;;;;;;;17.03;6.60;;;;;4.40;97861.00;;;;8213573;28;20289;-77
2022/11/12 07:36:00;;;;;;;9.50;5.83;;;;;4.50;97866.00;;;;8212519;28;20230;-78
2022/11/12 07:40:04;;;;;;;10.33;6.80;;;;;4.60;97867.00;;;;8220978;28;20235;-78
2022/11/12 07:44:07;;;;;;;11.57;6.93;;;;;4.70;97871.00;;;;8232107;28;20231;-77
2022/11/12 07:48:11;;;;;;;9.57;5.17;;;;;4.80;97871.00;;;;8221572;28;20285;-76
2022/11/12 07:52:15;;;;;;;6.47;5.10;;;;;5.00;97877.00;;;;8206684;28;20227;-77
2022/11/12 07:56:20;;;;;;;6.07;4.07;;;;;5.10;97875.00;;;;8210720;28;20611;-78
2022/11/12 08:00:23;;;;;;;5.40;4.37;;;;;5.20;97866.00;;;;8220180;28;20241;-77
2022/11/12 08:04:28;;;;;;;4.20;3.30;;;;;5.40;97873.00;;;;8215937;28;20238;-77
2022/11/12 08:08:31;;;;;;;6.20;3.40;;;;;5.50;97878.00;;;;8225997;28;20235;-77
2022/11/12 08:12:34;;;;;;;3.13;2.70;;;;;5.60;97870.00;;;;8208367;28;21030;-77
2022/11/12 08:16:37;;;;;;;2.87;2.60;;;;;5.70;97868.00;;;;8211114;28;20234;-77
2022/11/12 08:20:41;;;;;;;4.17;3.47;;;;;5.90;97879.00;;;;8215541;28;20314;-78
2022/11/12 08:24:44;;;;;;;4.77;3.73;;;;;6.00;97877.00;;;;8215498;28;20245;-78
2022/11/12 08:28:48;;;;;;;7.67;4.80;;;;;6.10;97870.00;;;;8223512;28;20230;-78
2022/11/12 08:32:56;;;;;;;6.87;4.47;;;;;6.10;97868.00;;;;8193912;28;20596;-78
2022/11/12 08:37:00;;;;;;;7.50;4.70;;;;;6.20;97866.00;;;;8214906;28;20719;-77
2022/11/12 08:41:05;;;;;;;9.10;5.10;;;;;6.30;97872.00;;;;8227366;28;20305;-78
2022/11/12 08:45:08;;;;;;;11.10;6.23;;;;;6.50;97869.00;;;;8230226;28;20227;-78
2022/11/12 08:49:11;;;;;;;8.80;5.17;;;;;6.60;97873.00;;;;8229354;28;20227;-78
2022/11/12 08:53:16;;;;;;;8.90;5.30;;;;;6.80;97890.00;;;;8225532;28;20235;-78
2022/11/12 08:57:19;;;;;;;6.90;4.67;;;;;6.90;97882.00;;;;8222288;28;20231;-78
2022/11/12 09:01:22;;;;;;;8.90;5.27;;;;;7.10;97890.00;;;;8241309;28;20720;-78
2022/11/12 09:05:26;;;;;;;12.73;5.40;;;;;7.40;97896.00;;;;8224314;28;20230;-78
2022/11/12 09:09:30;;;;;;;13.35;5.03;;;;;7.50;97902.00;;;;8211981;28;20235;-79
2022/11/12 09:13:34;;;;;;;13.20;4.40;;;;;7.60;97901.00;;;;8214104;28;20293;-80
2022/11/12 09:17:37;;;;;;;40.23;5.57;;;;;7.80;97899.00;;;;8222401;28;20246;-79
2022/11/12 09:21:40;;;;;;;70.47;5.93;;;;;7.90;97900.00;;;;8226302;28;20628;-79
2022/11/12 09:25:45;;;;;;;88.57;6.40;;;;;8.00;97899.00;;;;8235889;28;20284;-79
2022/11/12 09:29:48;;;;;;;106.93;7.90;;;;;8.20;97900.00;;;;8232878;28;20234;-80
2022/11/12 09:33:51;;;;;;;113.63;8.15;;;;;8.30;97907.00;;;;8217710;28;20250;-80
2022/11/12 09:37:54;;;;;;;122.07;8.60;;;;;8.50;97905.00;;;;8214122;28;20684;-80
2022/11/12 09:41:59;;;;;;;41.00;5.13;;;;;8.70;97902.00;;;;8220698;28;20281;-81
2022/11/12 09:46:10;;;;;;;133.85;9.77;;;;;9.00;97916.00;;;;8220999;28;20249;-78
2022/11/12 09:50:33;;;;;;;46.75;5.95;;;;;9.20;97898.00;;;;8242643;28;20286;-79
2022/11/12 09:54:37;;;;;;;49.65;6.90;;;;;9.40;97891.00;;;;8233318;28;20223;-78
2022/11/12 09:58:41;;;;;;;91.07;9.27;;;;;9.60;97900.00;;;;8234606;28;20230;-78
2022/11/12 10:02:56;;;;;;;30.88;7.93;;;;;9.90;97891.00;;;;8218430;28;20231;-79
2022/11/12 10:07:06;;;;;;;28.58;8.00;;;;;10.20;97894.00;;;;8221362;28;20261;-79
2022/11/12 10:11:30;;;;;;;40.30;7.63;;;;;10.30;97890.00;;;;8237955;28;20829;-79
2022/11/12 10:20:18;;;;;;;80.45;9.80;;;;;10.50;97895.00;;;;8217651;28;21206;-79
2022/11/12 10:24:23;;;;;;;42.28;9.50;;;;;10.60;97890.00;;;;8221201;28;21020;-79
2022/11/12 10:28:29;;;;;;;32.90;8.15;;;;;10.60;97870.00;;;;8232213;28;20878;-79
2022/11/12 10:32:43;;;;;;;31.05;7.97;;;;;10.70;97866.00;;;;8227092;28;21115;-80
2022/11/12 10:36:50;;;;;;;36.45;7.90;;;;;10.80;97862.00;;;;8225657;28;20772;-78
2022/11/12 10:40:57;;;;;;;19.27;7.15;;;;;10.80;97859.00;;;;8217162;28;20227;-79
2022/11/12 10:45:19;;;;;;;15.25;7.47;;;;;10.80;97847.00;;;;8241130;28;20230;-80
2022/11/12 10:49:25;;;;;;;14.88;6.68;;;;;10.80;97844.00;;;;8221961;28;20255;-79
2022/11/12 10:53:34;;;;;;;14.70;6.68;;;;;11.00;97841.00;;;;8235090;28;20226;-80
2022/11/12 10:57:37;;;;;;;17.70;7.80;;;;;11.10;97844.00;;;;8206738;28;20676;-81
2022/11/12 11:01:40;;;;;;;17.65;8.77;;;;;11.10;97835.00;;;;8219092;28;20303;-80
2022/11/12 11:05:52;;;;;;;16.90;8.60;;;;;11.10;97836.00;;;;8229997;28;20225;-78
2022/11/12 11:09:57;;;;;;;19.23;9.35;;;;;11.40;97831.00;;;;8224112;28;20225;-81
2022/11/12 11:14:25;;;;;;;20.35;9.10;;;;;11.50;97826.00;;;;8227094;28;20230;-78
2022/11/12 11:18:30;;;;;;;17.15;9.23;;;;;11.60;97834.00;;;;8224311;28;20238;-80
2022/11/12 11:22:41;;;;;;;14.40;8.77;;;;;11.70;97824.00;;;;8224029;28;20243;-82
2022/11/12 11:26:56;;;;;;;28.48;9.77;;;;;11.70;97827.00;;;;8218842;28;20228;-82
2022/11/12 11:31:06;;;;;;;32.22;10.05;;;;;11.80;97817.00;;;;8244183;28;20233;-81
2022/11/12 11:35:19;;;;;;;34.97;9.90;;;;;11.70;97809.00;;;;8234208;28;20241;-81
2022/11/12 11:39:34;;;;;;;48.13;10.48;;;;;11.70;97810.00;;;;8220390;28;20282;-81
2022/11/12 11:43:51;;;;;;;43.58;11.43;;;;;11.80;97802.00;;;;8216700;28;20657;-81
2022/11/12 11:48:01;;;;;;;34.95;12.18;;;;;11.90;97805.00;;;;8219145;28;20223;-81
2022/11/12 11:52:18;;;;;;;30.05;15.55;;;;;12.00;97798.00;;;;8239388;28;20228;-81
2022/11/12 11:56:27;;;;;;;35.90;16.73;;;;;12.30;97784.00;;;;8221682;28;20227;-80
2022/11/12 12:00:39;;;;;;;47.42;25.30;;;;;12.50;97789.00;;;;8232828;28;20238;-81
2022/11/12 12:04:48;;;;;;;23.00;12.20;;;;;12.60;97797.00;;;;8208182;28;20241;-81
2022/11/12 12:09:08;;;;;;;22.08;12.70;;;;;12.60;97784.00;;;;8222281;28;20254;-78
2022/11/12 12:13:21;;;;;;;17.35;11.20;;;;;12.60;97793.00;;;;8220372;28;20243;-78
2022/11/12 12:17:41;;;;;;;15.63;9.30;;;;;12.60;97787.00;;;;8211095;28;20322;-76
2022/11/12 12:21:48;;;;;;;14.73;9.27;;;;;12.60;97791.00;;;;8208611;28;20243;-78
2022/11/12 12:25:53;;;;;;;14.88;9.25;;;;;12.60;97795.00;;;;8213851;28;20243;-77
2022/11/12 12:30:06;;;;;;;14.73;8.20;;;;;12.70;97796.00;;;;8214332;28;20901;-78
2022/11/12 12:34:19;;;;;;;11.43;7.78;;;;;12.60;97794.00;;;;8210488;28;20250;-77
2022/11/12 12:38:28;;;;;;;12.02;8.00;;;;;12.50;97797.00;;;;8211799;28;20223;-78
2022/11/12 12:42:37;;;;;;;11.10;7.30;;;;;12.50;97796.00;;;;8206360;28;20848;-77
2022/11/12 12:46:46;;;;;;;11.73;7.47;;;;;12.60;97797.00;;;;8209039;28;20301;-76
2022/11/12 12:50:52;;;;;;;9.52;6.55;;;;;12.60;97805.00;;;;8202279;28;20230;-78
2022/11/12 12:54:57;;;;;;;10.35;6.57;;;;;12.40;97790.00;;;;8213297;28;20243;-77
2022/11/12 12:59:02;;;;;;;11.20;7.07;;;;;12.30;97785.00;;;;8212101;28;20235;-77
2022/11/12 13:03:11;;;;;;;10.75;7.60;;;;;12.20;97789.00;;;;8206282;28;20231;-77
2022/11/12 13:07:14;;;;;;;10.70;7.53;;;;;12.10;97785.00;;;;8210880;28;20246;-78
2022/11/12 13:16:09;;;;;;;12.18;7.00;;;;;12.20;97787.00;;;;8197982;28;21531;-76
2022/11/12 13:20:41;;;;;;;10.63;7.57;;;;;12.00;97780.00;;;;8209675;28;20464;-76
2022/11/12 13:25:05;;;;;;;12.77;8.23;;;;;11.90;97789.00;;;;8229714;28;20229;-77
2022/11/12 13:29:40;;;;;;;15.20;8.10;;;;;11.80;97781.00;;;;8193353;28;20285;-76
2022/11/12 13:33:43;;;;;;;18.42;9.23;;;;;11.60;97777.00;;;;8213243;28;20231;-77
2022/11/12 13:37:49;;;;;;;15.18;9.02;;;;;11.50;97777.00;;;;8208982;28;20971;-75
2022/11/12 13:46:27;;;;;;;16.20;9.52;;;;;11.50;97776.00;;;;8202635;28;20880;-81
2022/11/12 13:50:31;;;;;;;49.58;21.42;;;;;11.50;97769.00;;;;8208005;28;20246;-79
2022/11/12 13:54:43;;;;;;;30.35;13.70;;;;;11.40;97767.00;;;;8218769;28;20232;-77
2022/11/12 13:58:46;;;;;;;20.38;11.73;;;;;11.20;97756.00;;;;8219733;28;20677;-79
2022/11/12 14:02:54;;;;;;;23.00;11.70;;;;;11.10;97756.00;;;;8213447;28;20684;-78
2022/11/12 14:07:04;;;;;;;23.13;11.68;;;;;11.00;97751.00;;;;8214361;28;20241;-82
2022/11/12 14:11:35;;;;;;;18.95;11.70;;;;;11.00;97746.00;;;;8219795;28;20239;-80
2022/11/12 14:15:57;;;;;;;20.05;11.68;;;;;11.00;97739.00;;;;8205538;28;20235;-81
2022/11/12 14:20:35;;;;;;;18.27;10.88;;;;;11.00;97734.00;;;;8229159;28;20660;-81
2022/11/12 14:24:38;;;;;;;21.95;11.82;;;;;10.90;97738.00;;;;8104660;28;20231;-82
2022/11/12 14:28:43;;;;;;;27.88;13.05;;;;;10.90;97723.00;;;;8217440;28;20299;-81
2022/11/12 14:32:48;;;;;;;35.45;13.52;;;;;10.70;97721.00;;;;8213641;28;20814;-82
2022/11/12 14:36:54;;;;;;;26.00;13.95;;;;;10.70;97727.00;;;;8219319;28;20325;-81
2022/11/12 14:41:03;;;;;;;31.85;14.20;;;;;10.60;97718.00;;;;8229315;28;20232;-80
2022/11/12 14:45:15;;;;;;;77.20;13.05;;;;;10.50;97715.00;;;;8220926;28;20235;-78
2022/11/12 14:49:23;;;;;;;47.65;12.85;;;;;10.40;97710.00;;;;8217191;28;20948;-77
2022/11/12 14:53:32;;;;;;;174.85;15.73;;;;;10.30;97707.00;;;;8244460;28;20239;-80
2022/11/12 14:57:36;;;;;;;183.30;15.85;;;;;10.20;97704.00;;;;8207887;28;20465;-83
2022/11/12 15:01:41;;;;;;;39.75;13.20;;;;;10.00;97696.00;;;;8219587;28;20286;-79
2022/11/12 15:06:10;;;;;;;48.50;15.30;;;;;10.00;97693.00;;;;8213263;28;20258;-82
2022/11/12 15:10:35;;;;;;;91.93;15.40;;;;;9.90;97689.00;;;;8215927;28;20217;-78
2022/11/12 15:14:38;;;;;;;119.95;15.30;;;;;9.70;97686.00;;;;8223386;28;20250;-82
2022/11/12 15:18:43;;;;;;;91.13;13.38;;;;;9.50;97672.00;;;;8215877;28;20836;-80
2022/11/12 15:22:50;;;;;;;163.05;14.68;;;;;9.10;97660.00;;;;8213029;28;20221;-81
2022/11/12 15:26:55;;;;;;;168.77;15.48;;;;;8.90;97671.00;;;;8221490;28;20294;-80
2022/11/12 15:31:06;;;;;;;257.42;19.73;;;;;8.80;97668.00;;;;8239179;28;20229;-78
2022/11/12 15:35:31;;;;;;;167.40;15.60;;;;;8.70;97668.00;;;;8224870;28;20796;-83
2022/11/12 15:39:42;;;;;;;161.95;15.40;;;;;8.70;97668.00;;;;8226586;28;20227;-78
2022/11/12 15:43:46;;;;;;;196.63;18.38;;;;;8.60;97665.00;;;;8216519;28;20322;-74
2022/11/12 15:47:49;;;;;;;205.95;19.23;;;;;8.60;97671.00;;;;8224566;28;20227;-76
2022/11/12 15:52:28;;;;;;;420.15;25.73;;;;;8.50;97668.00;;;;8226413;28;20227;-73
2022/11/12 15:56:31;;;;;;;152.43;15.33;;;;;8.50;97653.00;;;;8230855;28;20664;-73
2022/11/12 16:00:36;;;;;;;135.52;15.48;;;;;8.50;97663.00;;;;8230446;28;20227;-73
2022/11/12 16:05:12;;;;;;;111.82;17.08;;;;;8.30;97656.00;;;;8231499;28;20597;-74
2022/11/12 16:09:48;;;;;;;284.95;23.35;;;;;8.20;97650.00;;;;8230671;28;20220;-74
2022/11/12 16:14:24;;;;;;;219.80;22.57;;;;;8.10;97648.00;;;;8230354;28;20227;-75
2022/11/12 16:18:27;;;;;;;259.27;24.30;;;;;8.10;97649.00;;;;8230366;28;20242;-75
2022/11/12 16:22:30;;;;;;;326.95;27.17;;;;;8.10;97648.00;;;;8230557;28;20282;-74
2022/11/12 16:26:36;;;;;;;434.17;33.43;;;;;8.10;97642.00;;;;8230096;28;20223;-75
2022/11/12 16:31:10;;;;;;;278.37;23.70;;;;;8.00;97648.00;;;;8230638;28;20227;-75
2022/11/12 16:35:47;;;;;;;412.17;27.73;;;;;8.00;97649.00;;;;8229696;28;20226;-74
2022/11/12 16:40:25;;;;;;;379.53;26.23;;;;;7.90;97645.00;;;;8230071;28;20258;-74
2022/11/12 16:45:00;;;;;;;259.33;24.33;;;;;7.80;97654.00;;;;8229034;28;20239;-75
2022/11/12 16:49:35;;;;;;;318.73;25.07;;;;;7.90;97654.00;;;;8230335;28;20656;-76
2022/11/12 16:54:11;;;;;;;533.73;33.27;;;;;7.90;97657.00;;;;8229345;28;20273;-75
2022/11/12 16:58:48;;;;;;;157.93;17.83;;;;;7.90;97658.00;;;;8229022;28;20306;-73
2022/11/12 17:02:52;;;;;;;186.70;18.50;;;;;7.80;97652.00;;;;8229856;28;20251;-74
2022/11/12 17:07:26;;;;;;;209.47;19.00;;;;;7.80;97646.00;;;;8229666;28;20216;-74
2022/11/12 17:12:04;;;;;;;272.33;22.40;;;;;7.80;97648.00;;;;8228811;28;20229;-74
2022/11/12 17:16:40;;;;;;;268.30;23.07;;;;;7.80;97654.00;;;;8230134;28;20223;-74
2022/11/12 17:20:45;;;;;;;326.90;25.60;;;;;7.80;97636.00;;;;8234956;28;20227;-74
2022/11/12 17:25:20;;;;;;;203.70;19.70;;;;;7.90;97638.00;;;;8235019;28;20246;-76
2022/11/12 17:29:58;;;;;;;213.47;21.30;;;;;7.90;97630.00;;;;8235764;28;20716;-76
2022/11/12 17:34:01;;;;;;;244.13;21.60;;;;;7.90;97624.00;;;;8236465;28;20235;-76
2022/11/12 17:38:05;;;;;;;315.10;25.77;;;;;7.90;97634.00;;;;8234956;28;20242;-76
2022/11/12 17:42:39;;;;;;;343.17;25.00;;;;;7.80;97634.00;;;;8236230;28;20223;-75
2022/11/12 17:52:04;;;;;;;344.10;24.87;;;;;7.60;97625.00;;;;8235068;28;20277;-75
2022/11/12 17:56:11;;;;;;;411.93;25.80;;;;;7.60;97628.00;;;;8234859;28;20227;-74
2022/11/12 18:00:45;;;;;;;317.60;24.40;;;;;7.70;97623.00;;;;8235663;28;20226;-74
2022/11/12 18:04:48;;;;;;;263.87;22.10;;;;;7.70;97617.00;;;;8234886;28;20246;-74
2022/11/12 18:08:53;;;;;;;212.10;20.40;;;;;7.80;97609.00;;;;8235590;28;20215;-74
2022/11/12 18:13:28;;;;;;;374.55;31.13;;;;;7.80;97611.00;;;;8234620;28;20223;-74
2022/11/12 18:17:33;;;;;;;430.83;29.63;;;;;7.70;97605.00;;;;8234842;28;20219;-73
2022/11/12 18:21:37;;;;;;;356.37;31.73;;;;;7.60;97595.00;;;;8234461;28;20239;-73
2022/11/12 18:26:13;;;;;;;497.33;33.27;;;;;7.50;97589.00;;;;8234981;28;20242;-73
2022/11/12 18:30:18;;;;;;;265.53;26.67;;;;;7.40;97589.00;;;;8234804;28;20685;-72
2022/11/12 18:34:21;;;;;;;240.03;24.23;;;;;7.40;97588.00;;;;8233606;28;20230;-72
2022/11/12 18:38:25;;;;;;;228.47;26.33;;;;;7.40;97580.00;;;;8235228;28;20235;-72
2022/11/12 18:43:01;;;;;;;149.47;20.50;;;;;7.40;97596.00;;;;8234347;28;20234;-72
2022/11/12 18:47:06;;;;;;;244.75;22.98;;;;;7.40;97587.00;;;;8234111;28;20557;-72
2022/11/12 18:51:10;;;;;;;295.63;26.50;;;;;7.30;97586.00;;;;8234125;28;20223;-72
2022/11/12 18:55:14;;;;;;;532.70;35.83;;;;;7.30;97582.00;;;;8233356;28;20225;-72
2022/11/12 18:59:53;;;;;;;195.30;20.57;;;;;7.30;97575.00;;;;8233242;28;20578;-72
2022/11/12 19:03:58;;;;;;;119.30;15.70;;;;;7.20;97577.00;;;;8233588;28;20306;-72
2022/11/12 19:08:01;;;;;;;132.60;16.70;;;;;7.10;97573.00;;;;8233033;28;20270;-72
2022/11/12 19:12:35;;;;;;;134.10;16.87;;;;;7.00;97571.00;;;;8233228;28;20219;-72
2022/11/12 19:16:41;;;;;;;72.83;14.20;;;;;7.00;97567.00;;;;8232644;28;20223;-72
2022/11/12 19:20:46;;;;;;;205.80;20.50;;;;;6.90;97554.00;;;;8232521;28;20234;-72
2022/11/12 19:24:49;;;;;;;251.30;20.43;;;;;6.90;97557.00;;;;8233157;28;20282;-72
2022/11/12 19:29:26;;;;;;;114.10;14.40;;;;;6.80;97551.00;;;;8233240;28;20298;-72
2022/11/12 19:33:29;;;;;;;431.97;27.60;;;;;6.60;97552.00;;;;8232159;28;20239;-72
2022/11/12 19:37:34;;;;;;;134.03;16.23;;;;;6.60;97550.00;;;;8232526;28;20259;-72
2022/11/12 19:41:37;;;;;;;53.97;11.10;;;;;6.60;97542.00;;;;8232411;28;20219;-72
2022/11/12 19:45:40;;;;;;;32.83;10.87;;;;;6.70;97553.00;;;;8231751;28;20254;-73
2022/11/12 19:49:43;;;;;;;115.63;13.17;;;;;6.70;97555.00;;;;8231834;28;20223;-73
2022/11/12 19:54:19;;;;;;;103.73;13.47;;;;;6.70;97555.00;;;;8232340;28;20231;-73
2022/11/12 19:58:57;;;;;;;90.20;12.83;;;;;6.80;97549.00;;;;8231358;28;20223;-73
2022/11/12 20:03:01;;;;;;;127.80;15.27;;;;;6.80;97556.00;;;;8231530;28;20293;-73
2022/11/12 20:07:04;;;;;;;64.03;10.27;;;;;6.80;97554.00;;;;8232019;28;20223;-73
2022/11/12 20:11:07;;;;;;;60.43;11.40;;;;;6.70;97553.00;;;;8231588;28;20223;-72
2022/11/12 20:15:12;;;;;;;267.27;19.07;;;;;6.80;97550.00;;;;8231172;28;20671;-73
2022/11/12 20:19:15;;;;;;;90.03;12.77;;;;;6.80;97549.00;;;;8231037;28;20255;-72
2022/11/12 20:23:19;;;;;;;521.37;30.50;;;;;6.80;97554.00;;;;8230765;28;20230;-73
2022/11/12 20:27:56;;;;;;;222.10;18.23;;;;;6.70;97547.00;;;;8230603;28;20219;-72
2022/11/12 20:32:00;;;;;;;81.97;11.80;;;;;6.60;97549.00;;;;8230470;28;20609;-73
2022/11/12 20:36:05;;;;;;;53.93;10.37;;;;;6.60;97547.00;;;;8230686;28;20219;-73
2022/11/12 20:40:39;;;;;;;145.43;16.30;;;;;6.60;97549.00;;;;8230561;28;20223;-73
2022/11/12 20:44:42;;;;;;;162.43;15.37;;;;;6.50;97542.00;;;;8230721;28;20565;-72
2022/11/12 20:48:47;;;;;;;346.93;20.73;;;;;6.40;97534.00;;;;8230937;28;20219;-73
2022/11/12 20:53:21;;;;;;;139.10;12.20;;;;;6.30;97527.00;;;;8230890;28;20223;-72
2022/11/12 20:57:25;;;;;;;189.90;14.90;;;;;6.20;97513.00;;;;8229840;28;20219;-72
2022/11/12 21:01:29;;;;;;;201.30;15.77;;;;;6.20;97512.00;;;;8230567;28;20234;-72
2022/11/12 21:05:34;;;;;;;251.83;17.37;;;;;6.20;97521.00;;;;8230380;28;20238;-72
2022/11/12 21:09:37;;;;;;;165.43;11.50;;;;;6.30;97524.00;;;;8230188;28;20231;-72
2022/11/12 21:14:14;;;;;;;188.07;14.07;;;;;6.30;97523.00;;;;8230873;28;20211;-71